Blovstrod, Denmark
Current Conditions -  °F | °C
As of 5:20 AM on Monday 26 Jan 2015 (Local Time) from EKCH Reporting Station
Moderate Fog Moderate Fog  
Wind Chill: 29°   Ceiling: 200
Heat Index: 34°   Visibility: 0.25mi
Dew Point: 34°   Wind: 6mph
Humidity: 100%   Direction: 210°SSW
Pressure: 30.12"   Gusts: NA
Location:  55.87°N, 12.39°E
Report Text: EKCH 260420Z 21005KT 0400 R22L/P1500N R04L/P1500D R12/P1500NFG VV002 01/01 Q1020 R04L/710160 R04R/710156 R12/710163 TEMPO0800
Loading
Personal Weather Stations






























Interactive Weather Map New forecast layout! Learn more

10-Day Weather Forecast

Advertisements
Track Severe Weather on mobile